Time,TemperatureF,DewpointF,PressureIn,WindDirection,WindDirectionDegrees,WindSpeedMPH,WindSpeedGustMPH,Humidity,HourlyPrecipIn,Conditions,Clouds,dailyrainin,SolarRadiationWatts/m^2,SoftwareType,DateUTC
2013-02-18 00:00:00,28.1,17.8,30.13,ESE,122,0.0,0.0,65,0.00,,,0.00,0,Wunderground v.1.15,2013-02-18 05:00:00,
2013-02-18 00:05:00,28.2,17.6,30.13,ESE,121,1.0,1.0,64,0.00,,,0.00,0,Wunderground v.1.15,2013-02-18 05:05:00,
2013-02-18 00:10:00,28.3,18.4,30.13,ESE,121,1.0,1.0,66,0.00,,,0.00,0,Wunderground v.1.15,2013-02-18 05:10:00,
2013-02-18 00:15:00,28.3,18.0,30.13,ESE,118,1.0,1.0,65,0.00,,,0.00,0,Wunderground v.1.15,2013-02-18 05:15:00,
2013-02-18 00:25:00,29.0,17.6,30.12,ESE,116,2.0,2.0,62,0.00,,,0.00,0,Wunderground v.1.15,2013-02-18 05:25:00,
2013-02-18 00:30:00,29.2,17.8,30.12,ESE,123,2.0,2.0,62,0.00,,,0.00,0,Wunderground v.1.15,2013-02-18 05:30:00,
2013-02-18 00:40:00,28.8,17.8,30.12,ESE,110,1.0,2.0,63,0.00,,,0.00,0,Wunderground v.1.15,2013-02-18 05:40:00,
2013-02-18 00:45:00,28.7,18.4,30.12,ESE,117,1.0,2.0,65,0.00,,,0.00,0,Wunderground v.1.15,2013-02-18 05:45:00,
2013-02-18 00:55:00,29.2,17.8,30.12,SE,141,2.0,2.0,62,0.00,,,0.00,0,Wunderground v.1.15,2013-02-18 05:55:00,
2013-02-18 01:00:00,29.6,17.4,30.11,SE,125,3.0,5.0,60,0.00,,,0.00,0,Wunderground v.1.15,2013-02-18 06:00:00,
2013-02-18 01:10:00,29.9,17.7,30.11,ESE,122,3.0,3.0,60,0.00,,,0.00,0,Wunderground v.1.15,2013-02-18 06:10:00,
2013-02-18 01:15:00,30.0,17.4,30.11,ESE,119,3.0,3.0,59,0.00,,,0.00,0,Wunderground v.1.15,2013-02-18 06:15:00,
2013-02-18 01:25:00,30.1,17.5,30.11,ESE,118,2.0,3.0,59,0.00,,,0.00,0,Wunderground v.1.15,2013-02-18 06:25:00,
2013-02-18 01:30:00,30.1,17.5,30.11,SE,127,2.0,4.0,59,0.00,,,0.00,0,Wunderground v.1.15,2013-02-18 06:30:00,
2013-02-18 01:40:00,30.0,17.4,30.11,ESE,118,3.0,3.0,59,0.00,,,0.00,0,Wunderground v.1.15,2013-02-18 06:40:00,
2013-02-18 01:50:00,30.1,17.9,30.11,SE,131,3.0,3.0,60,0.00,,,0.00,0,Wunderground v.1.15,2013-02-18 06:50:00,
2013-02-18 01:55:00,30.3,17.7,30.10,ESE,110,3.0,3.0,59,0.00,,,0.00,0,Wunderground v.1.15,2013-02-18 06:55:00,
2013-02-18 02:05:00,30.5,17.5,30.10,ESE,114,3.0,4.0,58,0.00,,,0.00,0,Wunderground v.1.15,2013-02-18 07:05:00,
2013-02-18 02:10:00,30.5,17.9,30.10,ESE,121,3.0,4.0,59,0.00,,,0.00,0,Wunderground v.1.15,2013-02-18 07:10:00,
2013-02-18 02:20:00,30.4,17.8,30.10,SE,141,3.0,4.0,59,0.00,,,0.00,0,Wunderground v.1.15,2013-02-18 07:20:00,
2013-02-18 02:25:00,30.4,18.2,30.10,East,95,2.0,4.0,60,0.00,,,0.00,0,Wunderground v.1.15,2013-02-18 07:25:00,
2013-02-18 02:35:00,30.1,18.3,30.10,ESE,114,1.0,2.0,61,0.00,,,0.00,0,Wunderground v.1.15,2013-02-18 07:35:00,
2013-02-18 02:45:00,29.6,18.2,30.09,SSE,149,1.0,1.0,62,0.00,,,0.00,0,Wunderground v.1.15,2013-02-18 07:45:00,
2013-02-18 02:50:00,29.5,18.4,30.09,SSE,149,0.0,1.0,63,0.00,,,0.00,0,Wunderground v.1.15,2013-02-18 07:50:00,
2013-02-18 02:55:00,29.4,18.0,30.09,ESE,122,1.0,1.0,62,0.00,,,0.00,0,Wunderground v.1.15,2013-02-18 07:55:00,
2013-02-18 03:05:00,29.3,18.3,30.08,SE,139,1.0,1.0,63,0.00,,,0.00,0,Wunderground v.1.15,2013-02-18 08:05:00,
2013-02-18 03:10:00,29.3,18.6,30.08,SE,129,2.0,3.0,64,0.00,,,0.00,0,Wunderground v.1.15,2013-02-18 08:10:00,
2013-02-18 03:20:00,29.3,17.9,30.08,ESE,116,1.0,2.0,62,0.00,,,0.00,0,Wunderground v.1.15,2013-02-18 08:20:00,
2013-02-18 03:30:00,29.5,18.4,30.07,ESE,109,2.0,4.0,63,0.00,,,0.00,0,Wunderground v.1.15,2013-02-18 08:30:00,
2013-02-18 03:35:00,29.7,18.3,30.07,SE,134,2.0,4.0,62,0.00,,,0.00,0,Wunderground v.1.15,2013-02-18 08:35:00,
2013-02-18 03:45:00,29.6,18.5,30.07,SE,133,1.0,2.0,63,0.00,,,0.00,0,Wunderground v.1.15,2013-02-18 08:45:00,
2013-02-18 03:50:00,29.5,18.4,30.07,SSE,152,2.0,2.0,63,0.00,,,0.00,0,Wunderground v.1.15,2013-02-18 08:50:00,
2013-02-18 04:00:00,29.3,18.6,30.07,ESE,122,1.0,4.0,64,0.00,,,0.00,0,Wunderground v.1.15,2013-02-18 09:00:00,
2013-02-18 04:10:00,29.2,18.5,30.06,SE,131,1.0,3.0,64,0.00,,,0.00,0,Wunderground v.1.15,2013-02-18 09:10:00,
2013-02-18 04:15:00,29.3,18.3,30.06,SE,128,2.0,3.0,63,0.00,,,0.00,0,Wunderground v.1.15,2013-02-18 09:15:00,
2013-02-18 04:25:00,29.1,18.4,30.06,SE,127,1.0,2.0,64,0.00,,,0.00,0,Wunderground v.1.15,2013-02-18 09:25:00,
2013-02-18 04:30:00,29.1,19.2,30.06,SE,127,1.0,1.0,66,0.00,,,0.00,0,Wunderground v.1.15,2013-02-18 09:30:00,
2013-02-18 04:40:00,28.8,18.9,30.06,ESE,123,0.0,0.0,66,0.00,,,0.00,0,Wunderground v.1.15,2013-02-18 09:40:00,
2013-02-18 04:45:00,28.9,19.0,30.05,SE,131,1.0,1.0,66,0.00,,,0.00,0,Wunderground v.1.15,2013-02-18 09:45:00,
2013-02-18 04:55:00,28.8,18.9,30.05,SE,145,1.0,2.0,66,0.00,,,0.00,0,Wunderground v.1.15,2013-02-18 09:55:00,
2013-02-18 05:00:00,28.9,19.3,30.05,SE,137,1.0,1.0,67,0.00,,,0.00,0,Wunderground v.1.15,2013-02-18 10:00:00,
2013-02-18 05:10:00,28.8,18.9,30.05,SSE,152,0.0,2.0,66,0.00,,,0.00,0,Wunderground v.1.15,2013-02-18 10:10:00,
2013-02-18 05:15:00,28.7,19.1,30.05,SSE,149,0.0,2.0,67,0.00,,,0.00,0,Wunderground v.1.15,2013-02-18 10:15:00,
2013-02-18 05:25:00,28.7,19.1,30.05,SE,136,0.0,0.0,67,0.00,,,0.00,0,Wunderground v.1.15,2013-02-18 10:25:00,
2013-02-18 05:30:00,28.6,19.7,30.05,SE,129,0.0,0.0,69,0.00,,,0.00,0,Wunderground v.1.15,2013-02-18 10:30:00,
2013-02-18 05:40:00,28.4,19.2,30.05,SE,129,0.0,0.0,68,0.00,,,0.00,0,Wunderground v.1.15,2013-02-18 10:40:00,
2013-02-18 05:50:00,28.7,19.5,30.05,SE,140,1.0,1.0,68,0.00,,,0.00,0,Wunderground v.1.15,2013-02-18 10:50:00,
2013-02-18 05:55:00,28.9,19.7,30.05,SE,135,1.0,1.0,68,0.00,,,0.00,0,Wunderground v.1.15,2013-02-18 10:55:00,
2013-02-18 06:05:00,29.3,19.7,30.05,SE,136,1.0,3.0,67,0.00,,,0.00,0,Wunderground v.1.15,2013-02-18 11:05:00,
2013-02-18 06:10:00,29.4,19.8,30.05,SE,139,1.0,4.0,67,0.00,,,0.00,0,Wunderground v.1.15,2013-02-18 11:10:00,
2013-02-18 06:20:00,29.8,19.5,30.05,ESE,121,1.0,1.0,65,0.00,,,0.00,0,Wunderground v.1.15,2013-02-18 11:20:00,
2013-02-18 06:30:00,30.2,19.8,30.04,SE,143,1.0,1.0,65,0.00,,,0.00,0,Wunderground v.1.15,2013-02-18 11:30:00,
2013-02-18 06:40:00,30.4,20.4,30.04,SSE,149,1.0,1.0,66,0.00,,,0.00,0,Wunderground v.1.15,2013-02-18 11:40:00,
2013-02-18 06:45:00,30.4,20.0,30.04,SSE,147,1.0,1.0,65,0.00,,,0.00,0,Wunderground v.1.15,2013-02-18 11:45:00,
2013-02-18 06:55:00,30.5,20.1,30.04,South,172,1.0,2.0,65,0.00,,,0.00,0,Wunderground v.1.15,2013-02-18 11:55:00,
2013-02-18 07:05:00,30.8,20.4,30.04,SE,145,0.0,1.0,65,0.00,,,0.00,0,Wunderground v.1.15,2013-02-18 12:05:00,
2013-02-18 07:10:00,30.8,20.4,30.04,ESE,110,1.0,1.0,65,0.00,,,0.00,0,Wunderground v.1.15,2013-02-18 12:10:00,
2013-02-18 07:20:00,30.6,20.6,30.04,SE,138,0.0,1.0,66,0.00,,,0.00,0,Wunderground v.1.15,2013-02-18 12:20:00,
2013-02-18 07:25:00,30.5,20.8,30.04,SSE,154,0.0,1.0,67,0.00,,,0.00,0,Wunderground v.1.15,2013-02-18 12:25:00,
2013-02-18 07:35:00,30.6,20.9,30.03,South,177,0.0,0.0,67,0.00,,,0.00,5,Wunderground v.1.15,2013-02-18 12:35:00,
2013-02-18 07:40:00,30.7,20.7,30.03,SSE,153,1.0,1.0,66,0.00,,,0.00,11,Wunderground v.1.15,2013-02-18 12:40:00,
2013-02-18 07:50:00,31.1,21.1,30.03,SSE,161,0.0,0.0,66,0.00,,,0.00,23,Wunderground v.1.15,2013-02-18 12:50:00,
2013-02-18 08:00:00,31.6,21.5,30.03,SSE,149,0.0,2.0,66,0.00,,,0.00,35,Wunderground v.1.15,2013-02-18 13:00:00,
2013-02-18 08:05:00,32.0,21.9,30.03,South,180,0.0,2.0,66,0.00,,,0.00,42,Wunderground v.1.15,2013-02-18 13:05:00,
2013-02-18 08:15:00,33.0,22.5,30.03,SSE,164,1.0,1.0,65,0.00,,,0.00,60,Wunderground v.1.15,2013-02-18 13:15:00,
2013-02-18 08:20:00,33.6,22.7,30.03,SSE,166,1.0,2.0,64,0.00,,,0.00,67,Wunderground v.1.15,2013-02-18 13:20:00,
2013-02-18 08:30:00,35.0,22.9,30.03,South,174,1.0,2.0,61,0.00,,,0.00,100,Wunderground v.1.15,2013-02-18 13:30:00,
2013-02-18 08:35:00,35.9,23.4,30.03,SE,143,2.0,4.0,60,0.00,,,0.00,109,Wunderground v.1.15,2013-02-18 13:35:00,
2013-02-18 08:40:00,36.6,23.6,30.03,SSW,195,2.0,6.0,59,0.00,,,0.00,109,Wunderground v.1.15,2013-02-18 13:40:00,
2013-02-18 08:50:00,37.7,24.2,30.03,SSW,193,3.0,3.0,58,0.00,,,0.00,158,Wunderground v.1.15,2013-02-18 13:50:00,
2013-02-18 08:55:00,38.3,24.8,30.03,SSE,161,3.0,3.0,58,0.00,,,0.00,169,Wunderground v.1.15,2013-02-18 13:55:00,
2013-02-18 09:05:00,39.5,25.1,30.03,South,180,2.0,4.0,56,0.00,,,0.00,234,Wunderground v.1.15,2013-02-18 14:05:00,
2013-02-18 09:10:00,40.1,25.2,30.03,SE,141,3.0,3.0,55,0.00,,,0.00,199,Wunderground v.1.15,2013-02-18 14:10:00,
2013-02-18 09:20:00,40.9,26.0,30.02,SSE,163,4.0,6.0,55,0.00,,,0.00,246,Wunderground v.1.15,2013-02-18 14:20:00,
2013-02-18 09:25:00,41.3,26.3,30.02,South,187,4.0,6.0,55,0.00,,,0.00,204,Wunderground v.1.15,2013-02-18 14:25:00,
2013-02-18 09:30:00,41.6,26.2,30.02,SSW,207,4.0,9.0,54,0.00,,,0.00,262,Wunderground v.1.15,2013-02-18 14:30:00,
2013-02-18 09:40:00,42.6,27.5,30.01,SSW,207,3.0,4.0,55,0.00,,,0.00,325,Wunderground v.1.15,2013-02-18 14:40:00,
2013-02-18 09:45:00,43.1,27.6,30.01,SSE,165,3.0,4.0,54,0.00,,,0.00,334,Wunderground v.1.15,2013-02-18 14:45:00,
2013-02-18 09:55:00,43.8,28.2,30.01,SSE,165,4.0,6.0,54,0.00,,,0.00,359,Wunderground v.1.15,2013-02-18 14:55:00,
2013-02-18 10:00:00,44.1,28.5,30.01,SSW,199,4.0,6.0,54,0.00,,,0.00,364,Wunderground v.1.15,2013-02-18 15:00:00,
2013-02-18 10:10:00,45.1,29.9,30.01,SSE,154,4.0,8.0,55,0.00,,,0.00,406,Wunderground v.1.15,2013-02-18 15:10:00,
2013-02-18 10:15:00,45.6,29.9,30.01,South,187,4.0,9.0,54,0.00,,,0.00,397,Wunderground v.1.15,2013-02-18 15:15:00,
2013-02-18 10:25:00,46.3,30.5,30.00,SSE,168,5.0,5.0,54,0.00,,,0.00,418,Wunderground v.1.15,2013-02-18 15:25:00,
2013-02-18 10:35:00,46.9,31.1,30.00,SSE,162,5.0,6.0,54,0.00,,,0.00,448,Wunderground v.1.15,2013-02-18 15:35:00,
2013-02-18 10:40:00,46.8,31.5,30.00,SW,214,6.0,6.0,55,0.00,,,0.00,359,Wunderground v.1.15,2013-02-18 15:40:00,
2013-02-18 10:45:00,47.1,32.2,29.99,South,186,5.0,6.0,56,0.00,,,0.00,378,Wunderground v.1.15,2013-02-18 15:45:00,
2013-02-18 10:55:00,47.8,32.9,29.99,South,184,4.0,4.0,56,0.00,,,0.00,531,Wunderground v.1.15,2013-02-18 15:55:00,
2013-02-18 11:05:00,49.0,33.5,29.99,West,262,4.0,4.0,55,0.00,,,0.00,390,Wunderground v.1.15,2013-02-18 16:05:00,
2013-02-18 11:10:00,49.2,34.2,29.99,SSW,195,5.0,5.0,56,0.00,,,0.00,548,Wunderground v.1.15,2013-02-18 16:10:00,
2013-02-18 11:20:00,50.3,36.1,29.98,SW,220,5.0,5.0,58,0.00,,,0.00,541,Wunderground v.1.15,2013-02-18 16:20:00,
2013-02-18 11:25:00,50.7,36.0,29.98,SSW,197,6.0,8.0,57,0.00,,,0.00,571,Wunderground v.1.15,2013-02-18 16:25:00,
2013-02-18 11:35:00,51.7,36.5,29.98,West,279,5.0,5.0,56,0.00,,,0.00,601,Wunderground v.1.15,2013-02-18 16:35:00,
2013-02-18 11:40:00,52.1,37.3,29.97,WSW,258,5.0,5.0,57,0.00,,,0.00,510,Wunderground v.1.15,2013-02-18 16:40:00,
2013-02-18 11:50:00,52.4,36.7,29.97,South,189,5.0,5.0,55,0.00,,,0.00,480,Wunderground v.1.15,2013-02-18 16:50:00,
2013-02-18 12:00:00,53.3,37.1,29.96,West,263,4.0,6.0,54,0.00,,,0.00,490,Wunderground v.1.15,2013-02-18 17:00:00,
2013-02-18 12:10:00,53.7,36.5,29.95,WSW,251,5.0,5.0,52,0.00,,,0.00,605,Wunderground v.1.15,2013-02-18 17:10:00,
2013-02-18 12:20:00,54.4,36.6,29.95,WSW,253,7.0,7.0,51,0.00,,,0.00,594,Wunderground v.1.15,2013-02-18 17:20:00,
2013-02-18 12:25:00,54.8,36.5,29.95,SSW,204,7.0,7.0,50,0.00,,,0.00,417,Wunderground v.1.15,2013-02-18 17:25:00,
2013-02-18 12:35:00,55.3,37.0,29.94,SSW,201,6.0,6.0,50,0.00,,,0.00,575,Wunderground v.1.15,2013-02-18 17:35:00,
2013-02-18 12:40:00,55.7,36.8,29.94,SW,219,5.0,6.0,49,0.00,,,0.00,664,Wunderground v.1.15,2013-02-18 17:40:00,
2013-02-18 12:50:00,56.8,37.3,29.93,West,275,4.0,9.0,48,0.00,,,0.00,708,Wunderground v.1.15,2013-02-18 17:50:00,
2013-02-18 13:00:00,57.5,37.4,29.93,West,270,6.0,8.0,47,0.00,,,0.00,647,Wunderground v.1.15,2013-02-18 18:00:00,
2013-02-18 13:05:00,58.2,37.5,29.93,SE,143,5.0,9.0,46,0.00,,,0.00,710,Wunderground v.1.15,2013-02-18 18:05:00,
2013-02-18 13:15:00,58.2,36.4,29.92,SW,233,7.0,12.0,44,0.00,,,0.00,654,Wunderground v.1.15,2013-02-18 18:15:00,
2013-02-18 13:25:00,57.8,37.1,29.91,West,262,7.0,8.0,46,0.00,,,0.00,622,Wunderground v.1.15,2013-02-18 18:25:00,
2013-02-18 13:30:00,58.2,36.4,29.91,South,189,7.0,7.0,44,0.00,,,0.00,642,Wunderground v.1.15,2013-02-18 18:30:00,
2013-02-18 13:35:00,58.1,36.3,29.91,West,268,6.0,7.0,44,0.00,,,0.00,497,Wunderground v.1.15,2013-02-18 18:35:00,
2013-02-18 13:45:00,58.0,36.8,29.90,South,191,6.0,6.0,45,0.00,,,0.00,350,Wunderground v.1.15,2013-02-18 18:45:00,
2013-02-18 13:55:00,58.6,36.7,29.89,SW,221,6.0,8.0,44,0.00,,,0.00,360,Wunderground v.1.15,2013-02-18 18:55:00,
2013-02-18 14:00:00,58.4,36.6,29.89,South,181,5.0,7.0,44,0.00,,,0.00,431,Wunderground v.1.15,2013-02-18 19:00:00,
2013-02-18 14:10:00,58.5,36.6,29.89,WSW,257,6.0,8.0,44,0.00,,,0.00,703,Wunderground v.1.15,2013-02-18 19:10:00,
2013-02-18 14:15:00,59.4,37.5,29.88,WSW,256,5.0,8.0,44,0.00,,,0.00,696,Wunderground v.1.15,2013-02-18 19:15:00,
2013-02-18 14:25:00,60.5,36.7,29.88,SSW,193,5.0,8.0,41,0.00,,,0.00,652,Wunderground v.1.15,2013-02-18 19:25:00,
2013-02-18 14:35:00,60.6,36.1,29.87,SSW,210,6.0,6.0,40,0.00,,,0.00,580,Wunderground v.1.15,2013-02-18 19:35:00,
2013-02-18 14:40:00,60.5,36.0,29.87,SSE,154,5.0,9.0,40,0.00,,,0.00,612,Wunderground v.1.15,2013-02-18 19:40:00,
2013-02-18 14:55:00,60.0,35.0,29.86,SSW,206,6.0,7.0,39,0.00,,,0.00,311,Wunderground v.1.15,2013-02-18 19:55:00,
2013-02-18 15:05:00,59.6,33.9,29.85,NE,54,6.0,7.0,38,0.00,,,0.00,276,Wunderground v.1.15,2013-02-18 20:05:00,
2013-02-18 15:10:00,59.3,34.3,29.85,WSW,239,7.0,7.0,39,0.00,,,0.00,237,Wunderground v.1.15,2013-02-18 20:10:00,
2013-02-18 15:20:00,59.5,35.8,29.84,South,186,6.0,6.0,41,0.00,,,0.00,571,Wunderground v.1.15,2013-02-18 20:20:00,
2013-02-18 15:30:00,59.9,34.9,29.83,SSW,201,6.0,6.0,39,0.00,,,0.00,438,Wunderground v.1.15,2013-02-18 20:30:00,
2013-02-18 15:35:00,59.7,34.7,29.83,SW,219,5.0,6.0,39,0.00,,,0.00,250,Wunderground v.1.15,2013-02-18 20:35:00,
2013-02-18 15:45:00,59.5,35.1,29.82,SSW,197,5.0,7.0,40,0.00,,,0.00,207,Wunderground v.1.15,2013-02-18 20:45:00,
2013-02-18 15:54:00,59.5,35.1,29.81,WSW,242,4.0,6.0,40,0.00,,,0.00,202,Wunderground v.1.15,2013-02-18 20:54:00,
2013-02-18 16:00:00,59.4,34.4,29.81,WSW,249,4.0,4.0,39,0.00,,,0.00,183,Wunderground v.1.15,2013-02-18 21:00:00,
2013-02-18 16:10:00,59.3,33.7,29.81,SW,235,6.0,7.0,38,0.00,,,0.00,202,Wunderground v.1.15,2013-02-18 21:10:00,
2013-02-18 16:15:00,59.4,33.8,29.81,South,187,6.0,7.0,38,0.00,,,0.00,206,Wunderground v.1.15,2013-02-18 21:15:00,
2013-02-18 16:25:00,60.4,33.3,29.81,SSE,168,4.0,5.0,36,0.00,,,0.00,151,Wunderground v.1.15,2013-02-18 21:25:00,
2013-02-18 16:30:00,59.9,33.5,29.81,SSW,206,5.0,5.0,37,0.00,,,0.00,158,Wunderground v.1.15,2013-02-18 21:30:00,
2013-02-18 16:40:00,59.6,32.6,29.80,West,270,7.0,7.0,36,0.00,,,0.00,127,Wunderground v.1.15,2013-02-18 21:40:00,
2013-02-18 16:45:00,59.6,32.6,29.80,SSW,199,6.0,7.0,36,0.00,,,0.00,139,Wunderground v.1.15,2013-02-18 21:45:00,
2013-02-18 16:55:00,59.4,33.1,29.79,South,189,4.0,5.0,37,0.00,,,0.00,102,Wunderground v.1.15,2013-02-18 21:55:00,
2013-02-18 17:00:00,59.3,33.0,29.79,SE,142,5.0,9.0,37,0.00,,,0.00,84,Wunderground v.1.15,2013-02-18 22:00:00,
2013-02-18 17:10:00,59.0,32.7,29.78,WSW,246,5.0,6.0,37,0.00,,,0.00,47,Wunderground v.1.15,2013-02-18 22:10:00,
2013-02-18 17:20:00,58.8,32.6,29.79,SSW,204,5.0,6.0,37,0.00,,,0.00,26,Wunderground v.1.15,2013-02-18 22:20:00,
2013-02-18 17:25:00,58.6,33.0,29.78,SW,234,5.0,9.0,38,0.00,,,0.00,23,Wunderground v.1.15,2013-02-18 22:25:00,
2013-02-18 17:35:00,58.5,33.0,29.78,SW,215,4.0,4.0,38,0.00,,,0.00,12,Wunderground v.1.15,2013-02-18 22:35:00,
2013-02-18 17:40:00,58.4,32.9,29.79,SSW,204,5.0,5.0,38,0.00,,,0.00,16,Wunderground v.1.15,2013-02-18 22:40:00,
2013-02-18 17:50:00,58.3,33.4,29.78,SSW,206,5.0,5.0,39,0.00,,,0.00,12,Wunderground v.1.15,2013-02-18 22:50:00,
2013-02-18 17:55:00,58.1,33.2,29.78,South,190,4.0,7.0,39,0.00,,,0.00,25,Wunderground v.1.15,2013-02-18 22:55:00,
2013-02-18 18:05:00,58.1,32.6,29.78,South,190,7.0,9.0,38,0.00,,,0.00,5,Wunderground v.1.15,2013-02-18 23:05:00,
2013-02-18 18:10:00,58.0,33.2,29.77,SSE,160,7.0,7.0,39,0.00,,,0.00,5,Wunderground v.1.15,2013-02-18 23:10:00,
2013-02-18 18:20:00,57.8,33.0,29.77,ESE,118,5.0,13.0,39,0.00,,,0.00,0,Wunderground v.1.15,2013-02-18 23:20:00,
2013-02-18 18:25:00,57.6,32.8,29.77,ESE,117,5.0,13.0,39,0.00,,,0.00,0,Wunderground v.1.15,2013-02-18 23:25:00,
2013-02-18 18:35:00,57.5,34.0,29.77,WSW,237,5.0,5.0,41,0.00,,,0.00,0,Wunderground v.1.15,2013-02-18 23:35:00,
2013-02-18 18:45:00,57.3,33.8,29.77,SE,140,3.0,6.0,41,0.00,,,0.00,0,Wunderground v.1.15,2013-02-18 23:45:00,
2013-02-18 18:55:00,57.3,33.8,29.77,SSE,154,4.0,4.0,41,0.00,,,0.00,0,Wunderground v.1.15,2013-02-18 23:55:00,
2013-02-18 19:05:00,57.1,34.8,29.77,South,179,6.0,17.0,43,0.00,,,0.00,0,Wunderground v.1.15,2013-02-19 00:05:00,
2013-02-18 19:15:00,56.5,36.0,29.78,SSE,152,4.0,6.0,46,0.00,,,0.00,0,Wunderground v.1.15,2013-02-19 00:15:00,
2013-02-18 19:20:00,55.7,37.8,29.78,WSW,237,5.0,6.0,51,0.00,,,0.00,0,Wunderground v.1.15,2013-02-19 00:20:00,
2013-02-18 19:29:00,53.9,40.3,29.78,SW,235,7.0,7.0,60,0.00,,,0.00,0,Wunderground v.1.15,2013-02-19 00:29:00,
2013-02-18 19:35:00,52.4,40.6,29.77,South,179,7.0,7.0,64,0.00,,,0.00,0,Wunderground v.1.15,2013-02-19 00:35:00,
2013-02-18 19:45:00,51.3,41.8,29.76,South,191,5.0,7.0,70,0.08,,,0.02,0,Wunderground v.1.15,2013-02-19 00:45:00,
2013-02-18 19:55:00,50.8,41.4,29.75,SSE,167,5.0,9.0,70,0.06,,,0.02,0,Wunderground v.1.15,2013-02-19 00:55:00,
2013-02-18 20:05:00,51.4,40.4,29.75,South,170,5.0,5.0,66,0.00,,,0.02,0,Wunderground v.1.15,2013-02-19 01:05:00,
2013-02-18 20:10:00,51.5,40.9,29.75,South,179,5.0,6.0,67,0.00,,,0.02,0,Wunderground v.1.15,2013-02-19 01:10:00,
2013-02-18 20:19:00,51.8,40.4,29.74,SE,125,4.0,5.0,65,0.00,,,0.02,0,Wunderground v.1.15,2013-02-19 01:19:00,
2013-02-18 20:25:00,51.6,41.0,29.73,SE,139,4.0,5.0,67,0.00,,,0.02,0,Wunderground v.1.15,2013-02-19 01:25:00,
2013-02-18 20:30:00,51.2,41.4,29.72,SSW,202,4.0,6.0,69,0.00,,,0.02,0,Wunderground v.1.15,2013-02-19 01:30:00,
2013-02-18 20:40:00,50.6,41.5,29.71,South,171,5.0,7.0,71,0.11,,,0.04,0,Wunderground v.1.15,2013-02-19 01:40:00,
2013-02-18 20:50:00,50.3,41.3,29.70,SSE,149,3.0,10.0,71,0.04,,,0.04,0,Wunderground v.1.15,2013-02-19 01:50:00,
2013-02-18 20:55:00,50.3,41.3,29.71,South,191,3.0,10.0,71,0.00,,,0.04,0,Wunderground v.1.15,2013-02-19 01:55:00,
2013-02-18 21:05:00,50.4,41.3,29.71,SSE,167,2.0,4.0,71,0.00,,,0.04,0,Wunderground v.1.15,2013-02-19 02:05:00,
2013-02-18 21:14:00,50.0,42.4,29.72,West,269,2.0,2.0,75,0.00,,,0.05,0,Wunderground v.1.15,2013-02-19 02:14:00,
2013-02-18 21:20:00,49.5,42.2,29.72,East,80,2.0,5.0,76,0.19,,,0.07,0,Wunderground v.1.15,2013-02-19 02:20:00,
2013-02-18 21:29:00,49.0,42.1,29.72,SSW,193,5.0,5.0,77,0.20,,,0.10,0,Wunderground v.1.15,2013-02-19 02:29:00,
2013-02-18 21:35:00,48.8,42.2,29.73,SSW,207,5.0,9.0,78,0.26,,,0.12,0,Wunderground v.1.15,2013-02-19 02:35:00,
2013-02-18 21:45:00,48.4,42.2,29.72,SSW,207,6.0,8.0,79,0.08,,,0.14,0,Wunderground v.1.15,2013-02-19 02:45:00,
2013-02-18 21:55:00,48.3,42.1,29.71,WSW,239,5.0,8.0,79,0.05,,,0.15,0,Wunderground v.1.15,2013-02-19 02:55:00,
2013-02-18 22:04:00,48.4,42.2,29.70,SSE,161,6.0,6.0,79,0.07,,,0.16,0,Wunderground v.1.15,2013-02-19 03:04:00,
2013-02-18 22:14:00,48.1,42.2,29.70,SSW,196,5.0,7.0,80,0.06,,,0.17,0,Wunderground v.1.15,2013-02-19 03:14:00,
2013-02-18 22:19:00,48.3,41.8,29.70,South,174,7.0,7.0,78,0.05,,,0.18,0,Wunderground v.1.15,2013-02-19 03:19:00,
2013-02-18 22:25:00,48.2,41.7,29.69,SSE,165,7.0,7.0,78,0.05,,,0.18,0,Wunderground v.1.15,2013-02-19 03:25:00,
2013-02-18 22:35:00,47.9,42.0,29.69,SSW,200,4.0,6.0,80,0.04,,,0.18,0,Wunderground v.1.15,2013-02-19 03:35:00,
2013-02-18 22:49:00,47.6,42.1,29.69,WSW,253,4.0,4.0,81,0.05,,,0.20,0,Wunderground v.1.15,2013-02-19 03:49:00,
2013-02-18 22:55:00,47.4,42.2,29.70,SW,224,4.0,12.0,82,0.05,,,0.20,0,Wunderground v.1.15,2013-02-19 03:55:00,
2013-02-18 23:05:00,47.3,42.4,29.69,NW,308,5.0,5.0,83,0.05,,,0.21,0,Wunderground v.1.15,2013-02-19 04:05:00,
2013-02-18 23:14:00,47.0,42.4,29.70,South,187,4.0,9.0,84,0.08,,,0.22,0,Wunderground v.1.15,2013-02-19 04:14:00,
2013-02-18 23:20:00,46.9,42.3,29.70,SSW,206,4.0,4.0,84,0.06,,,0.23,0,Wunderground v.1.15,2013-02-19 04:20:00,
2013-02-18 23:30:00,46.6,42.6,29.70,SW,231,5.0,5.0,86,0.19,,,0.26,0,Wunderground v.1.15,2013-02-19 04:30:00,
2013-02-18 23:40:00,46.3,42.6,29.69,SSW,197,3.0,9.0,87,0.11,,,0.27,0,Wunderground v.1.15,2013-02-19 04:40:00,
2013-02-18 23:45:00,46.3,42.6,29.68,SSE,157,4.0,9.0,87,0.11,,,0.28,0,Wunderground v.1.15,2013-02-19 04:45:00,
2013-02-18 23:55:00,46.0,42.6,29.69,SSW,207,3.0,4.0,88,0.04,,,0.28,0,Wunderground v.1.15,2013-02-19 04:55:00,